QTR56AM HESH-EBBR
Flight info
| Callsign | QTR56AM |
|---|---|
| Flight time | 4h 32m |
| Altitude | 38000 |
| Route | SHM L677 CVO L617 NABSI M872 METRU DCT PLH UL604 TRL/N0479F400 DCT ELVAS DCT DIMIS DCT UNDER DCT PETAK DCT GLOMY DCT ELTIB DCT TUPUS DCT GORPA DCT BERTA DCT INGID DCT INROM DCT SIMBA DCT MAMOR DCT INBED DCT TEKTU DCT TESGA DCT UMUPU T880 BATTY |
| Aircraft | A35K/H-SDE2E3GHIJ3J4J5LM1ORWXY/LB1D1 |
Departure
| Time | 2026-05-06 11:24 |
|---|---|
| Airport | Sharm El Sheikh International Airport (HESH) |
Arrival
| Time | 2026-05-06 15:56 |
|---|---|
| Airport | Brussels Airport (EBBR) |
| Time | Latitude | Longitude | Altitude | Speed | Heading |
|---|---|---|---|---|---|
| 2026-05-06 10:52 | 27.98064 | 34.38993 | 121 ft | 0 kts | 133° |
| 2026-05-06 11:18 | 27.98054 | 34.39005 | 140 ft | 6 kts | 133° |
| 2026-05-06 11:18 | 27.98002 | 34.39063 | 140 ft | 16 kts | 140° |
| 2026-05-06 11:18 | 27.97907 | 34.39073 | 141 ft | 9 kts | 220° |
| 2026-05-06 11:19 | 27.97849 | 34.39008 | 141 ft | 17 kts | 224° |
| 2026-05-06 11:19 | 27.97753 | 34.38906 | 141 ft | 20 kts | 222° |
| 2026-05-06 11:19 | 27.97639 | 34.38791 | 142 ft | 26 kts | 221° |
| 2026-05-06 11:19 | 27.97502 | 34.38653 | 143 ft | 27 kts | 221° |
| 2026-05-06 11:20 | 27.97327 | 34.38461 | 144 ft | 26 kts | 220° |
| 2026-05-06 11:20 | 27.97234 | 34.38369 | 145 ft | 28 kts | 222° |
| 2026-05-06 11:20 | 27.97086 | 34.38211 | 146 ft | 30 kts | 223° |
| 2026-05-06 11:20 | 27.96988 | 34.38134 | 147 ft | 0 kts | 174° |
| 2026-05-06 11:21 | 27.96948 | 34.38163 | 147 ft | 16 kts | 140° |
| 2026-05-06 11:21 | 27.96826 | 34.38307 | 148 ft | 34 kts | 134° |
| 2026-05-06 11:21 | 27.96668 | 34.38502 | 127 ft | 11 kts | 134° |
| 2026-05-06 11:21 | 27.96662 | 34.38508 | 122 ft | 3 kts | 134° |
| 2026-05-06 11:22 | 27.96641 | 34.38533 | 128 ft | 0 kts | 134° |
| 2026-05-06 11:22 | 27.96640 | 34.38534 | 131 ft | 2 kts | 134° |
| 2026-05-06 11:22 | 27.96609 | 34.38576 | 125 ft | 11 kts | 118° |
| 2026-05-06 11:23 | 27.96635 | 34.38666 | 126 ft | 14 kts | 47° |
| 2026-05-06 11:23 | 27.96655 | 34.38688 | 125 ft | 1 kts | 44° |
| 2026-05-06 11:23 | 27.96661 | 34.38694 | 125 ft | 13 kts | 44° |
| 2026-05-06 11:24 | 27.96904 | 34.38954 | 125 ft | 83 kts | 43° |
| 2026-05-06 11:24 | 27.97486 | 34.39554 | 129 ft | 141 kts | 43° |
| 2026-05-06 11:24 | 27.98245 | 34.40320 | 687 ft | 147 kts | 42° |
| 2026-05-06 11:24 | 27.99166 | 34.40868 | 1355 ft | 153 kts | 24° |
| 2026-05-06 11:25 | 28.00194 | 34.41401 | 1660 ft | 172 kts | 25° |
| 2026-05-06 11:25 | 28.01338 | 34.42021 | 1851 ft | 193 kts | 26° |
| 2026-05-06 11:25 | 28.02628 | 34.42722 | 2026 ft | 219 kts | 25° |
| 2026-05-06 11:25 | 28.04071 | 34.43504 | 2327 ft | 241 kts | 25° |
| 2026-05-06 11:26 | 28.05632 | 34.44352 | 2804 ft | 254 kts | 25° |
| 2026-05-06 11:26 | 28.07245 | 34.45233 | 3420 ft | 259 kts | 25° |
| 2026-05-06 11:26 | 28.08884 | 34.46128 | 4039 ft | 262 kts | 25° |
| 2026-05-06 11:26 | 28.10534 | 34.47029 | 4705 ft | 265 kts | 24° |
| 2026-05-06 11:27 | 28.12220 | 34.47919 | 5321 ft | 269 kts | 20° |
| 2026-05-06 11:27 | 28.14019 | 34.48380 | 5922 ft | 270 kts | 1° |
| 2026-05-06 11:27 | 28.15895 | 34.48449 | 6572 ft | 271 kts | 358° |
| 2026-05-06 11:27 | 28.17795 | 34.48461 | 7140 ft | 275 kts | 358° |
| 2026-05-06 11:28 | 28.19723 | 34.48464 | 7698 ft | 279 kts | 356° |
| 2026-05-06 11:28 | 28.21630 | 34.48102 | 8281 ft | 277 kts | 336° |
| 2026-05-06 11:28 | 28.23244 | 34.46955 | 8899 ft | 273 kts | 312° |
| 2026-05-06 11:28 | 28.24324 | 34.45211 | 9572 ft | 269 kts | 295° |
| 2026-05-06 11:29 | 28.25141 | 34.43305 | 10197 ft | 271 kts | 293° |
| 2026-05-06 11:29 | 28.25957 | 34.41321 | 10485 ft | 286 kts | 293° |
| 2026-05-06 11:29 | 28.26822 | 34.39231 | 10751 ft | 301 kts | 293° |
| 2026-05-06 11:29 | 28.27747 | 34.37025 | 11040 ft | 315 kts | 293° |
| 2026-05-06 11:30 | 28.28711 | 34.34739 | 11306 ft | 328 kts | 294° |
| 2026-05-06 11:30 | 28.29709 | 34.32384 | 11529 ft | 340 kts | 294° |
| 2026-05-06 11:30 | 28.30752 | 34.29927 | 11800 ft | 349 kts | 294° |
| 2026-05-06 11:30 | 28.31812 | 34.27430 | 12240 ft | 353 kts | 294° |
| 2026-05-06 11:31 | 28.32888 | 34.24899 | 12741 ft | 357 kts | 294° |
| 2026-05-06 11:31 | 28.33970 | 34.22347 | 13244 ft | 360 kts | 294° |
| 2026-05-06 11:31 | 28.35061 | 34.19766 | 13690 ft | 364 kts | 293° |
| 2026-05-06 11:31 | 28.36159 | 34.17163 | 14099 ft | 366 kts | 294° |
| 2026-05-06 11:32 | 28.37263 | 34.14549 | 14536 ft | 367 kts | 294° |
| 2026-05-06 11:32 | 28.38369 | 34.11927 | 14980 ft | 369 kts | 294° |
| 2026-05-06 11:32 | 28.39472 | 34.09324 | 15398 ft | 370 kts | 294° |
| 2026-05-06 11:32 | 28.40586 | 34.06682 | 15842 ft | 372 kts | 294° |
| 2026-05-06 11:33 | 28.41710 | 34.04026 | 16279 ft | 374 kts | 293° |
| 2026-05-06 11:33 | 28.42839 | 34.01346 | 16756 ft | 376 kts | 293° |
| 2026-05-06 11:33 | 28.43966 | 33.98664 | 17235 ft | 377 kts | 293° |
| 2026-05-06 11:33 | 28.45100 | 33.95969 | 17666 ft | 379 kts | 293° |
| 2026-05-06 11:34 | 28.46242 | 33.93256 | 18120 ft | 382 kts | 293° |
| 2026-05-06 11:34 | 28.47390 | 33.90521 | 18559 ft | 384 kts | 293° |
| 2026-05-06 11:34 | 28.48545 | 33.87766 | 18924 ft | 385 kts | 293° |
| 2026-05-06 11:34 | 28.49703 | 33.85009 | 19293 ft | 387 kts | 293° |
| 2026-05-06 11:35 | 28.50866 | 33.82234 | 19664 ft | 390 kts | 292° |
| 2026-05-06 11:35 | 28.52021 | 33.79478 | 20040 ft | 392 kts | 292° |
| 2026-05-06 11:35 | 28.53190 | 33.76685 | 20476 ft | 392 kts | 293° |
| 2026-05-06 11:35 | 28.54361 | 33.73890 | 20885 ft | 392 kts | 293° |
| 2026-05-06 11:36 | 28.55540 | 33.71071 | 21205 ft | 396 kts | 292° |
| 2026-05-06 11:36 | 28.56723 | 33.68238 | 21574 ft | 397 kts | 292° |
| 2026-05-06 11:36 | 28.57914 | 33.65388 | 21933 ft | 399 kts | 292° |
| 2026-05-06 11:36 | 28.59106 | 33.62529 | 22199 ft | 402 kts | 292° |
| 2026-05-06 11:37 | 28.60309 | 33.59642 | 22577 ft | 403 kts | 292° |
| 2026-05-06 11:37 | 28.61512 | 33.56758 | 22931 ft | 404 kts | 292° |
| 2026-05-06 11:37 | 28.62802 | 33.53904 | 23265 ft | 408 kts | 297° |
| 2026-05-06 11:37 | 28.64391 | 33.51212 | 23591 ft | 412 kts | 302° |
| 2026-05-06 11:38 | 28.66139 | 33.48611 | 23883 ft | 415 kts | 304° |
| 2026-05-06 11:38 | 28.67965 | 33.46036 | 24159 ft | 418 kts | 305° |
| 2026-05-06 11:38 | 28.69820 | 33.43473 | 24451 ft | 419 kts | 306° |
| 2026-05-06 11:38 | 28.71655 | 33.40942 | 24698 ft | 422 kts | 306° |
| 2026-05-06 11:39 | 28.73519 | 33.38355 | 25001 ft | 422 kts | 305° |
| 2026-05-06 11:39 | 28.75377 | 33.35758 | 25299 ft | 423 kts | 305° |
| 2026-05-06 11:39 | 28.77240 | 33.33138 | 25583 ft | 425 kts | 305° |
| 2026-05-06 11:39 | 28.79100 | 33.30508 | 25836 ft | 427 kts | 304° |
| 2026-05-06 11:40 | 28.80967 | 33.27861 | 26100 ft | 429 kts | 304° |
| 2026-05-06 11:40 | 28.82840 | 33.25203 | 26398 ft | 430 kts | 304° |
| 2026-05-06 11:40 | 28.84721 | 33.22532 | 26709 ft | 432 kts | 304° |
| 2026-05-06 11:40 | 28.86597 | 33.19868 | 26984 ft | 434 kts | 304° |
| 2026-05-06 11:41 | 28.88495 | 33.17170 | 27286 ft | 435 kts | 304° |
| 2026-05-06 11:41 | 28.90398 | 33.14464 | 27607 ft | 437 kts | 304° |
| 2026-05-06 11:41 | 28.92304 | 33.11754 | 27910 ft | 438 kts | 304° |
| 2026-05-06 11:41 | 28.94220 | 33.09027 | 28219 ft | 441 kts | 304° |
| 2026-05-06 11:42 | 28.96144 | 33.06286 | 28522 ft | 443 kts | 304° |
| 2026-05-06 11:42 | 28.98042 | 33.03581 | 28820 ft | 444 kts | 304° |
| 2026-05-06 11:42 | 28.99980 | 33.00818 | 29137 ft | 446 kts | 304° |
| 2026-05-06 11:42 | 29.01926 | 32.98041 | 29444 ft | 448 kts | 304° |
| 2026-05-06 11:43 | 29.03882 | 32.95248 | 29769 ft | 450 kts | 304° |
| 2026-05-06 11:43 | 29.05842 | 32.92448 | 30083 ft | 452 kts | 304° |
| 2026-05-06 11:43 | 29.07811 | 32.89633 | 30349 ft | 454 kts | 304° |
| 2026-05-06 11:44 | 29.11773 | 32.83963 | 30883 ft | 458 kts | 304° |
| 2026-05-06 11:44 | 29.13761 | 32.81115 | 31183 ft | 459 kts | 304° |
| 2026-05-06 11:44 | 29.15759 | 32.78251 | 31510 ft | 459 kts | 304° |
| 2026-05-06 11:44 | 29.17726 | 32.75431 | 31893 ft | 458 kts | 304° |
| 2026-05-06 11:45 | 29.19713 | 32.72581 | 32306 ft | 457 kts | 304° |
| 2026-05-06 11:45 | 29.21691 | 32.69741 | 32715 ft | 455 kts | 304° |
| 2026-05-06 11:45 | 29.23668 | 32.66899 | 33127 ft | 454 kts | 304° |
| 2026-05-06 11:45 | 29.25623 | 32.64087 | 33513 ft | 453 kts | 304° |
| 2026-05-06 11:46 | 29.27584 | 32.61265 | 33907 ft | 452 kts | 304° |
| 2026-05-06 11:46 | 29.29537 | 32.58453 | 34268 ft | 451 kts | 304° |
| 2026-05-06 11:46 | 29.31461 | 32.55669 | 34607 ft | 449 kts | 304° |
| 2026-05-06 11:46 | 29.33395 | 32.52851 | 34958 ft | 448 kts | 304° |
| 2026-05-06 11:47 | 29.35321 | 32.50034 | 35270 ft | 447 kts | 304° |
| 2026-05-06 11:47 | 29.37240 | 32.47230 | 35591 ft | 447 kts | 304° |
| 2026-05-06 11:47 | 29.39159 | 32.44423 | 35936 ft | 445 kts | 304° |
| 2026-05-06 11:47 | 29.41066 | 32.41634 | 36287 ft | 444 kts | 304° |
| 2026-05-06 11:48 | 29.42982 | 32.38834 | 36624 ft | 443 kts | 303° |
| 2026-05-06 11:48 | 29.44864 | 32.36083 | 36960 ft | 442 kts | 303° |
| 2026-05-06 11:48 | 29.46759 | 32.33311 | 37297 ft | 441 kts | 303° |
| 2026-05-06 11:48 | 29.48652 | 32.30541 | 37632 ft | 440 kts | 303° |
| 2026-05-06 11:49 | 29.50539 | 32.27778 | 37946 ft | 439 kts | 303° |
| 2026-05-06 11:49 | 29.52428 | 32.25006 | 38077 ft | 441 kts | 303° |
| 2026-05-06 11:49 | 29.56212 | 32.19451 | 38080 ft | 441 kts | 303° |
| 2026-05-06 11:50 | 29.59998 | 32.13890 | 38082 ft | 441 kts | 303° |
| 2026-05-06 11:50 | 29.63779 | 32.08329 | 38082 ft | 441 kts | 303° |
| 2026-05-06 11:51 | 29.67553 | 32.02769 | 38081 ft | 441 kts | 303° |
| 2026-05-06 11:51 | 29.71303 | 31.97238 | 38088 ft | 441 kts | 303° |
| 2026-05-06 11:52 | 29.75072 | 31.91671 | 38092 ft | 441 kts | 303° |
| 2026-05-06 11:52 | 29.78837 | 31.86104 | 38097 ft | 441 kts | 303° |
| 2026-05-06 11:53 | 29.82512 | 31.80463 | 38094 ft | 440 kts | 302° |
| 2026-05-06 11:53 | 29.86118 | 31.74772 | 38099 ft | 439 kts | 302° |
| 2026-05-06 11:54 | 29.89732 | 31.69087 | 38095 ft | 439 kts | 302° |
| 2026-05-06 11:54 | 29.93342 | 31.63451 | 38095 ft | 439 kts | 302° |
| 2026-05-06 11:55 | 29.96996 | 31.57809 | 38079 ft | 439 kts | 303° |
| 2026-05-06 11:55 | 30.00654 | 31.52158 | 38075 ft | 439 kts | 302° |
| 2026-05-06 11:56 | 30.04304 | 31.46506 | 38075 ft | 439 kts | 302° |
| 2026-05-06 11:56 | 30.07957 | 31.40854 | 38078 ft | 439 kts | 303° |
| 2026-05-06 11:57 | 30.12183 | 31.35687 | 38076 ft | 444 kts | 311° |
| 2026-05-06 11:57 | 30.16698 | 31.30789 | 38076 ft | 445 kts | 312° |
| 2026-05-06 11:58 | 30.21244 | 31.25936 | 38080 ft | 445 kts | 312° |
| 2026-05-06 11:58 | 30.25787 | 31.21071 | 38081 ft | 445 kts | 312° |
| 2026-05-06 11:59 | 30.30290 | 31.16226 | 38092 ft | 444 kts | 312° |
| 2026-05-06 11:59 | 30.34815 | 31.11345 | 38069 ft | 445 kts | 312° |
| 2026-05-06 12:00 | 30.39334 | 31.06464 | 38072 ft | 445 kts | 312° |
| 2026-05-06 12:00 | 30.43854 | 31.01575 | 38070 ft | 444 kts | 312° |
| 2026-05-06 12:01 | 30.48372 | 30.96682 | 38074 ft | 444 kts | 312° |
| 2026-05-06 12:01 | 30.52900 | 30.91773 | 38076 ft | 445 kts | 312° |
| 2026-05-06 12:02 | 30.57421 | 30.86865 | 38071 ft | 445 kts | 312° |
| 2026-05-06 12:02 | 30.61942 | 30.81950 | 38071 ft | 445 kts | 312° |
| 2026-05-06 12:03 | 30.66454 | 30.77039 | 38074 ft | 445 kts | 312° |
| 2026-05-06 12:03 | 30.70944 | 30.72144 | 38085 ft | 445 kts | 312° |
| 2026-05-06 12:04 | 30.74696 | 30.68049 | 38079 ft | 444 kts | 312° |
| 2026-05-06 12:04 | 30.79203 | 30.63124 | 38084 ft | 444 kts | 312° |
| 2026-05-06 12:05 | 30.83704 | 30.58199 | 38081 ft | 444 kts | 312° |
| 2026-05-06 12:05 | 30.88210 | 30.53261 | 38084 ft | 445 kts | 312° |
| 2026-05-06 12:06 | 30.92713 | 30.48321 | 38084 ft | 445 kts | 312° |
| 2026-05-06 12:06 | 30.97219 | 30.43369 | 38090 ft | 445 kts | 312° |
| 2026-05-06 12:07 | 31.01688 | 30.38452 | 38096 ft | 445 kts | 312° |
| 2026-05-06 12:07 | 31.06133 | 30.33437 | 38097 ft | 442 kts | 308° |
| 2026-05-06 12:08 | 31.09608 | 30.27602 | 38098 ft | 436 kts | 294° |
| 2026-05-06 12:08 | 31.11762 | 30.21028 | 38104 ft | 434 kts | 287° |
| 2026-05-06 12:09 | 31.13591 | 30.14306 | 38101 ft | 435 kts | 286° |
| 2026-05-06 12:09 | 31.15388 | 30.07555 | 38104 ft | 435 kts | 286° |
| 2026-05-06 12:10 | 31.17202 | 30.00814 | 38104 ft | 435 kts | 286° |
| 2026-05-06 12:10 | 31.19482 | 29.94305 | 38104 ft | 438 kts | 297° |
| 2026-05-06 12:11 | 31.22891 | 29.88387 | 38104 ft | 440 kts | 303° |
| 2026-05-06 12:11 | 31.26505 | 29.82611 | 38107 ft | 441 kts | 303° |
| 2026-05-06 12:12 | 31.30144 | 29.76832 | 38108 ft | 441 kts | 303° |
| 2026-05-06 12:12 | 31.33768 | 29.71036 | 38110 ft | 441 kts | 303° |
| 2026-05-06 12:13 | 31.37363 | 29.65256 | 38112 ft | 441 kts | 303° |
| 2026-05-06 12:13 | 31.40963 | 29.59453 | 38114 ft | 441 kts | 303° |
| 2026-05-06 12:14 | 31.44562 | 29.53646 | 38119 ft | 440 kts | 303° |
| 2026-05-06 12:14 | 31.48162 | 29.47829 | 38115 ft | 440 kts | 303° |
| 2026-05-06 12:15 | 31.51758 | 29.42010 | 38113 ft | 440 kts | 303° |
| 2026-05-06 12:15 | 31.55327 | 29.36227 | 38119 ft | 440 kts | 303° |
| 2026-05-06 12:16 | 31.58908 | 29.30415 | 38112 ft | 440 kts | 303° |
| 2026-05-06 12:16 | 31.62516 | 29.24550 | 38111 ft | 440 kts | 303° |
| 2026-05-06 12:17 | 31.66061 | 29.18753 | 38114 ft | 440 kts | 303° |
| 2026-05-06 12:17 | 31.69637 | 29.12900 | 38117 ft | 440 kts | 303° |
| 2026-05-06 12:18 | 31.73203 | 29.07059 | 38114 ft | 440 kts | 303° |
| 2026-05-06 12:18 | 31.76775 | 29.01214 | 38115 ft | 440 kts | 303° |
| 2026-05-06 12:19 | 31.80339 | 28.95359 | 38116 ft | 440 kts | 303° |
| 2026-05-06 12:19 | 31.83907 | 28.89488 | 38120 ft | 440 kts | 303° |
| 2026-05-06 12:20 | 31.87468 | 28.83623 | 38102 ft | 441 kts | 303° |
| 2026-05-06 12:20 | 31.91009 | 28.77785 | 38119 ft | 441 kts | 303° |
| 2026-05-06 12:21 | 31.94565 | 28.71912 | 38120 ft | 440 kts | 303° |
| 2026-05-06 12:21 | 31.98123 | 28.66026 | 38108 ft | 440 kts | 303° |
| 2026-05-06 12:22 | 32.01672 | 28.60146 | 38106 ft | 441 kts | 303° |
| 2026-05-06 12:22 | 32.05229 | 28.54243 | 38110 ft | 441 kts | 303° |
| 2026-05-06 12:23 | 32.08788 | 28.48331 | 38130 ft | 441 kts | 303° |
| 2026-05-06 12:23 | 32.12340 | 28.42419 | 38117 ft | 441 kts | 303° |
| 2026-05-06 12:24 | 32.15859 | 28.36551 | 38112 ft | 441 kts | 303° |
| 2026-05-06 12:24 | 32.19407 | 28.30628 | 38116 ft | 442 kts | 303° |
| 2026-05-06 12:25 | 32.22960 | 28.24687 | 38116 ft | 442 kts | 303° |
| 2026-05-06 12:25 | 32.26488 | 28.18778 | 38114 ft | 442 kts | 303° |
| 2026-05-06 12:26 | 32.30042 | 28.12817 | 38117 ft | 443 kts | 303° |
| 2026-05-06 12:26 | 32.33586 | 28.06863 | 38112 ft | 443 kts | 303° |
| 2026-05-06 12:27 | 32.37125 | 28.00909 | 38113 ft | 443 kts | 303° |
| 2026-05-06 12:27 | 32.40667 | 27.94938 | 38118 ft | 443 kts | 303° |
| 2026-05-06 12:28 | 32.44190 | 27.88991 | 38117 ft | 443 kts | 303° |
| 2026-05-06 12:28 | 32.47725 | 27.83015 | 38117 ft | 444 kts | 303° |
| 2026-05-06 12:29 | 32.51266 | 27.77020 | 38117 ft | 444 kts | 303° |
| 2026-05-06 12:29 | 32.54799 | 27.71026 | 38120 ft | 444 kts | 303° |
| 2026-05-06 12:30 | 32.58334 | 27.65023 | 38115 ft | 444 kts | 303° |
| 2026-05-06 12:30 | 32.61871 | 27.59005 | 38117 ft | 444 kts | 303° |
| 2026-05-06 12:31 | 32.65395 | 27.52999 | 38118 ft | 444 kts | 303° |
| 2026-05-06 12:31 | 32.68926 | 27.46971 | 38121 ft | 444 kts | 303° |
| 2026-05-06 12:32 | 32.72424 | 27.40988 | 38114 ft | 444 kts | 303° |
| 2026-05-06 12:32 | 32.75944 | 27.34942 | 38115 ft | 444 kts | 303° |
| 2026-05-06 12:33 | 32.79456 | 27.28903 | 38111 ft | 445 kts | 303° |
| 2026-05-06 12:33 | 32.82977 | 27.22840 | 38110 ft | 445 kts | 303° |
| 2026-05-06 12:34 | 32.86483 | 27.16792 | 38113 ft | 445 kts | 303° |
| 2026-05-06 12:34 | 32.89996 | 27.10722 | 38118 ft | 445 kts | 303° |
| 2026-05-06 12:35 | 32.93484 | 27.04686 | 38116 ft | 445 kts | 303° |
| 2026-05-06 12:35 | 32.96990 | 26.98609 | 38114 ft | 445 kts | 303° |
| 2026-05-06 12:36 | 33.00497 | 26.92519 | 38119 ft | 445 kts | 303° |
| 2026-05-06 12:36 | 33.03994 | 26.86420 | 38119 ft | 445 kts | 303° |
| 2026-05-06 12:37 | 33.07492 | 26.80307 | 38117 ft | 446 kts | 303° |
| 2026-05-06 12:37 | 33.10967 | 26.74230 | 38118 ft | 446 kts | 303° |
| 2026-05-06 12:38 | 33.14460 | 26.68112 | 38109 ft | 446 kts | 303° |
| 2026-05-06 12:38 | 33.17954 | 26.61982 | 38116 ft | 446 kts | 302° |
| 2026-05-06 12:39 | 33.21442 | 26.55853 | 38121 ft | 446 kts | 302° |
| 2026-05-06 12:39 | 33.24927 | 26.49719 | 38115 ft | 446 kts | 302° |
| 2026-05-06 12:40 | 33.28412 | 26.43573 | 38112 ft | 446 kts | 302° |
| 2026-05-06 12:40 | 33.31894 | 26.37425 | 38116 ft | 446 kts | 302° |
| 2026-05-06 12:41 | 33.35377 | 26.31264 | 38120 ft | 447 kts | 302° |
| 2026-05-06 12:41 | 33.38828 | 26.25148 | 38118 ft | 447 kts | 302° |
| 2026-05-06 12:42 | 33.42306 | 26.18974 | 38120 ft | 447 kts | 302° |
| 2026-05-06 12:42 | 33.45782 | 26.12794 | 38116 ft | 447 kts | 302° |
| 2026-05-06 12:43 | 33.49254 | 26.06611 | 38116 ft | 447 kts | 302° |
| 2026-05-06 12:43 | 33.52723 | 26.00422 | 38115 ft | 448 kts | 302° |
| 2026-05-06 12:44 | 33.56196 | 25.94216 | 38118 ft | 448 kts | 302° |
| 2026-05-06 12:44 | 33.59663 | 25.88010 | 38117 ft | 448 kts | 302° |
| 2026-05-06 12:45 | 33.63132 | 25.81790 | 38118 ft | 448 kts | 302° |
| 2026-05-06 12:46 | 33.68325 | 25.72458 | 38116 ft | 448 kts | 302° |
| 2026-05-06 12:46 | 33.71790 | 25.66218 | 38115 ft | 448 kts | 302° |
| 2026-05-06 12:47 | 33.75247 | 25.59982 | 38113 ft | 449 kts | 302° |
| 2026-05-06 12:47 | 33.78687 | 25.53768 | 38116 ft | 449 kts | 302° |
| 2026-05-06 12:48 | 33.82143 | 25.47511 | 38115 ft | 449 kts | 302° |
| 2026-05-06 12:48 | 33.85593 | 25.41256 | 38115 ft | 449 kts | 302° |
| 2026-05-06 12:49 | 33.89050 | 25.34978 | 38113 ft | 449 kts | 302° |
| 2026-05-06 12:49 | 33.92497 | 25.28707 | 38115 ft | 450 kts | 302° |
| 2026-05-06 12:50 | 33.95362 | 25.23486 | 38118 ft | 450 kts | 302° |
| 2026-05-06 12:50 | 33.99452 | 25.16178 | 38117 ft | 451 kts | 306° |
| 2026-05-06 12:51 | 34.03703 | 25.10646 | 38112 ft | 452 kts | 313° |
| 2026-05-06 12:51 | 34.07471 | 25.06188 | 38113 ft | 453 kts | 314° |
| 2026-05-06 12:52 | 34.11963 | 25.00947 | 38112 ft | 453 kts | 314° |
| 2026-05-06 12:52 | 34.16492 | 24.95643 | 38116 ft | 453 kts | 314° |
| 2026-05-06 12:53 | 34.21001 | 24.90336 | 38109 ft | 453 kts | 314° |
| 2026-05-06 12:53 | 34.25513 | 24.85009 | 38112 ft | 453 kts | 314° |
| 2026-05-06 12:54 | 34.29992 | 24.79712 | 38114 ft | 453 kts | 314° |
| 2026-05-06 12:54 | 34.34504 | 24.74368 | 38114 ft | 453 kts | 314° |
| 2026-05-06 12:55 | 34.39005 | 24.69029 | 38111 ft | 453 kts | 314° |
| 2026-05-06 12:55 | 34.43521 | 24.63665 | 38110 ft | 453 kts | 314° |
| 2026-05-06 12:56 | 34.48021 | 24.58311 | 38112 ft | 454 kts | 314° |
| 2026-05-06 12:56 | 34.52519 | 24.52950 | 38109 ft | 454 kts | 314° |
| 2026-05-06 12:57 | 34.56997 | 24.47605 | 38110 ft | 454 kts | 314° |
| 2026-05-06 12:57 | 34.61494 | 24.42229 | 38111 ft | 454 kts | 314° |
| 2026-05-06 12:58 | 34.65997 | 24.36836 | 38108 ft | 454 kts | 314° |
| 2026-05-06 12:58 | 34.70487 | 24.31451 | 38106 ft | 454 kts | 314° |
| 2026-05-06 12:59 | 34.74997 | 24.26032 | 38114 ft | 454 kts | 314° |
| 2026-05-06 12:59 | 34.79455 | 24.20668 | 38108 ft | 454 kts | 313° |
| 2026-05-06 13:00 | 34.83955 | 24.15245 | 38108 ft | 455 kts | 313° |
| 2026-05-06 13:00 | 34.88455 | 24.09812 | 38107 ft | 455 kts | 313° |
| 2026-05-06 13:01 | 34.92944 | 24.04384 | 38107 ft | 455 kts | 313° |
| 2026-05-06 13:01 | 34.97436 | 23.98943 | 38111 ft | 455 kts | 313° |
| 2026-05-06 13:02 | 35.01932 | 23.93489 | 38110 ft | 455 kts | 313° |
| 2026-05-06 13:02 | 35.06389 | 23.88073 | 38115 ft | 455 kts | 313° |
| 2026-05-06 13:03 | 35.10882 | 23.82604 | 38115 ft | 455 kts | 313° |
| 2026-05-06 13:03 | 35.15368 | 23.77136 | 38114 ft | 455 kts | 313° |
| 2026-05-06 13:04 | 35.19848 | 23.71670 | 38112 ft | 455 kts | 313° |
| 2026-05-06 13:04 | 35.24849 | 23.66984 | 38116 ft | 459 kts | 328° |
| 2026-05-06 13:05 | 35.30523 | 23.63372 | 38113 ft | 460 kts | 331° |
| 2026-05-06 13:05 | 35.36291 | 23.59940 | 38117 ft | 461 kts | 332° |
| 2026-05-06 13:06 | 35.42070 | 23.56516 | 38117 ft | 461 kts | 331° |
| 2026-05-06 13:06 | 35.47839 | 23.53066 | 38113 ft | 461 kts | 331° |
| 2026-05-06 13:07 | 35.53560 | 23.49622 | 38110 ft | 460 kts | 331° |
| 2026-05-06 13:07 | 35.59315 | 23.46151 | 38113 ft | 461 kts | 331° |
| 2026-05-06 13:08 | 35.65068 | 23.42675 | 38107 ft | 461 kts | 331° |
| 2026-05-06 13:08 | 35.70821 | 23.39195 | 38109 ft | 461 kts | 331° |
| 2026-05-06 13:09 | 35.76566 | 23.35715 | 38106 ft | 460 kts | 331° |
| 2026-05-06 13:09 | 35.82314 | 23.32226 | 38102 ft | 460 kts | 331° |
| 2026-05-06 13:10 | 35.88070 | 23.28727 | 38102 ft | 460 kts | 331° |
| 2026-05-06 13:10 | 35.93811 | 23.25233 | 38099 ft | 460 kts | 331° |
| 2026-05-06 13:11 | 35.99508 | 23.21759 | 38098 ft | 459 kts | 331° |
| 2026-05-06 13:11 | 36.05241 | 23.18257 | 38098 ft | 459 kts | 331° |
| 2026-05-06 13:12 | 36.10971 | 23.14752 | 38095 ft | 459 kts | 331° |
| 2026-05-06 13:12 | 36.16703 | 23.11246 | 38090 ft | 459 kts | 331° |
| 2026-05-06 13:13 | 36.22432 | 23.07728 | 38090 ft | 459 kts | 331° |
| 2026-05-06 13:13 | 36.28157 | 23.04207 | 38085 ft | 460 kts | 331° |
| 2026-05-06 13:14 | 36.33895 | 23.00674 | 38088 ft | 460 kts | 331° |
| 2026-05-06 13:14 | 36.39628 | 22.97139 | 38082 ft | 460 kts | 331° |
| 2026-05-06 13:15 | 36.45319 | 22.93624 | 38087 ft | 460 kts | 331° |
| 2026-05-06 13:15 | 36.51048 | 22.90079 | 38083 ft | 460 kts | 331° |
| 2026-05-06 13:16 | 36.56779 | 22.86528 | 38084 ft | 460 kts | 331° |
| 2026-05-06 13:16 | 36.62508 | 22.82972 | 38080 ft | 460 kts | 331° |
| 2026-05-06 13:17 | 36.68237 | 22.79411 | 38080 ft | 460 kts | 331° |
| 2026-05-06 13:17 | 36.73971 | 22.75839 | 38080 ft | 460 kts | 331° |
| 2026-05-06 13:18 | 36.79668 | 22.72285 | 38079 ft | 460 kts | 331° |
| 2026-05-06 13:18 | 36.85394 | 22.68707 | 38082 ft | 460 kts | 331° |
| 2026-05-06 13:19 | 36.91123 | 22.65121 | 38064 ft | 460 kts | 331° |
| 2026-05-06 13:19 | 36.96846 | 22.61533 | 38088 ft | 460 kts | 331° |
| 2026-05-06 13:20 | 37.02578 | 22.57932 | 38089 ft | 460 kts | 331° |
| 2026-05-06 13:20 | 37.08304 | 22.54330 | 38069 ft | 460 kts | 331° |
| 2026-05-06 13:21 | 37.14021 | 22.50728 | 38076 ft | 460 kts | 331° |
| 2026-05-06 13:21 | 37.19712 | 22.47135 | 38078 ft | 460 kts | 331° |
| 2026-05-06 13:22 | 37.25437 | 22.43516 | 38079 ft | 460 kts | 331° |
| 2026-05-06 13:22 | 37.31161 | 22.39891 | 38075 ft | 460 kts | 330° |
| 2026-05-06 13:23 | 37.36868 | 22.36269 | 38074 ft | 460 kts | 330° |
| 2026-05-06 13:23 | 37.42761 | 22.33017 | 38077 ft | 463 kts | 337° |
| 2026-05-06 13:24 | 37.48799 | 22.30312 | 38072 ft | 463 kts | 338° |
| 2026-05-06 13:24 | 37.54900 | 22.27649 | 38078 ft | 464 kts | 338° |
| 2026-05-06 13:25 | 37.60991 | 22.24987 | 38080 ft | 464 kts | 338° |
| 2026-05-06 13:25 | 37.67084 | 22.22308 | 38077 ft | 464 kts | 338° |
| 2026-05-06 13:26 | 37.73178 | 22.19619 | 38082 ft | 464 kts | 338° |
| 2026-05-06 13:26 | 37.76226 | 22.18273 | 38187 ft | 464 kts | 338° |
| 2026-05-06 13:26 | 37.79279 | 22.16923 | 38519 ft | 463 kts | 338° |
| 2026-05-06 13:26 | 37.82314 | 22.15580 | 38873 ft | 462 kts | 338° |
| 2026-05-06 13:27 | 37.85353 | 22.14234 | 39099 ft | 461 kts | 338° |
| 2026-05-06 13:27 | 37.88386 | 22.12890 | 39310 ft | 461 kts | 338° |
| 2026-05-06 13:27 | 37.91424 | 22.11541 | 39529 ft | 461 kts | 338° |
| 2026-05-06 13:27 | 37.94415 | 22.10212 | 39751 ft | 461 kts | 338° |
| 2026-05-06 13:28 | 37.97447 | 22.08864 | 39952 ft | 462 kts | 338° |
| 2026-05-06 13:28 | 38.00484 | 22.07513 | 40074 ft | 464 kts | 338° |
| 2026-05-06 13:28 | 38.03539 | 22.06153 | 40082 ft | 464 kts | 338° |
| 2026-05-06 13:29 | 38.09633 | 22.03437 | 40087 ft | 464 kts | 338° |
| 2026-05-06 13:29 | 38.15721 | 22.00719 | 40076 ft | 463 kts | 338° |
| 2026-05-06 13:30 | 38.21806 | 21.97998 | 40085 ft | 463 kts | 338° |
| 2026-05-06 13:30 | 38.27878 | 21.95273 | 40085 ft | 463 kts | 338° |
| 2026-05-06 13:31 | 38.33969 | 21.92539 | 40085 ft | 463 kts | 338° |
| 2026-05-06 13:31 | 38.40016 | 21.89819 | 40087 ft | 463 kts | 338° |
| 2026-05-06 13:32 | 38.46095 | 21.87078 | 40082 ft | 463 kts | 338° |
| 2026-05-06 13:32 | 38.52123 | 21.84153 | 40091 ft | 462 kts | 331° |
| 2026-05-06 13:33 | 38.57691 | 21.80131 | 40084 ft | 459 kts | 327° |
| 2026-05-06 13:33 | 38.63146 | 21.75861 | 40086 ft | 459 kts | 326° |
| 2026-05-06 13:34 | 38.68581 | 21.71545 | 40092 ft | 460 kts | 326° |
| 2026-05-06 13:34 | 38.74022 | 21.67229 | 40092 ft | 460 kts | 326° |
| 2026-05-06 13:35 | 38.79424 | 21.62952 | 40088 ft | 460 kts | 326° |
| 2026-05-06 13:35 | 38.84871 | 21.58638 | 40091 ft | 460 kts | 326° |
| 2026-05-06 13:36 | 38.90318 | 21.54313 | 40092 ft | 460 kts | 326° |
| 2026-05-06 13:36 | 38.95766 | 21.49976 | 40095 ft | 460 kts | 326° |
| 2026-05-06 13:37 | 39.00303 | 21.46360 | 40095 ft | 460 kts | 326° |
| 2026-05-06 13:37 | 39.05746 | 21.42016 | 40097 ft | 461 kts | 326° |
| 2026-05-06 13:38 | 39.11192 | 21.37660 | 40096 ft | 461 kts | 325° |
| 2026-05-06 13:38 | 39.16644 | 21.33292 | 40097 ft | 461 kts | 325° |
| 2026-05-06 13:39 | 39.22100 | 21.28913 | 40092 ft | 462 kts | 325° |
| 2026-05-06 13:39 | 39.27525 | 21.24549 | 40099 ft | 462 kts | 325° |
| 2026-05-06 13:40 | 39.33900 | 21.19413 | 40098 ft | 462 kts | 325° |
| 2026-05-06 13:40 | 39.38430 | 21.15755 | 40098 ft | 462 kts | 325° |
| 2026-05-06 13:41 | 39.43875 | 21.11351 | 40096 ft | 462 kts | 325° |
| 2026-05-06 13:41 | 39.49321 | 21.06938 | 40097 ft | 462 kts | 325° |
| 2026-05-06 13:42 | 39.54737 | 21.02543 | 40102 ft | 461 kts | 325° |
| 2026-05-06 13:42 | 39.60173 | 20.98122 | 40098 ft | 461 kts | 325° |
| 2026-05-06 13:43 | 39.65623 | 20.93682 | 40103 ft | 462 kts | 325° |
| 2026-05-06 13:43 | 39.71057 | 20.89245 | 40103 ft | 462 kts | 325° |
| 2026-05-06 13:44 | 39.76497 | 20.84796 | 40099 ft | 462 kts | 325° |
| 2026-05-06 13:44 | 39.81941 | 20.80335 | 40102 ft | 463 kts | 325° |
| 2026-05-06 13:45 | 39.87357 | 20.75889 | 40095 ft | 462 kts | 324° |
| 2026-05-06 13:45 | 39.95514 | 20.69178 | 40086 ft | 462 kts | 324° |
| 2026-05-06 13:46 | 40.00939 | 20.64703 | 40076 ft | 462 kts | 324° |
| 2026-05-06 13:46 | 40.06378 | 20.60234 | 40074 ft | 463 kts | 326° |
| 2026-05-06 13:47 | 40.12117 | 20.56350 | 40072 ft | 465 kts | 330° |
| 2026-05-06 13:47 | 40.17922 | 20.52621 | 40074 ft | 465 kts | 330° |
| 2026-05-06 13:48 | 40.23742 | 20.48900 | 40071 ft | 465 kts | 330° |
| 2026-05-06 13:48 | 40.29563 | 20.45162 | 40070 ft | 465 kts | 330° |
| 2026-05-06 13:49 | 40.35372 | 20.41418 | 40073 ft | 466 kts | 330° |
| 2026-05-06 13:49 | 40.41164 | 20.37676 | 40068 ft | 466 kts | 330° |
| 2026-05-06 13:50 | 40.46983 | 20.33911 | 40063 ft | 465 kts | 330° |
| 2026-05-06 13:50 | 40.52789 | 20.30145 | 40072 ft | 465 kts | 330° |
| 2026-05-06 13:51 | 40.58590 | 20.26377 | 40064 ft | 464 kts | 330° |
| 2026-05-06 13:51 | 40.64393 | 20.22601 | 40074 ft | 466 kts | 330° |
| 2026-05-06 13:52 | 40.70199 | 20.18811 | 40076 ft | 465 kts | 330° |
| 2026-05-06 13:52 | 40.75969 | 20.15040 | 40081 ft | 465 kts | 330° |
| 2026-05-06 13:53 | 40.81779 | 20.11235 | 40076 ft | 466 kts | 330° |
| 2026-05-06 13:53 | 40.87571 | 20.07434 | 40081 ft | 466 kts | 330° |
| 2026-05-06 13:54 | 40.93376 | 20.03618 | 40081 ft | 466 kts | 330° |
| 2026-05-06 13:54 | 40.99182 | 19.99793 | 40085 ft | 466 kts | 330° |
| 2026-05-06 13:55 | 41.05004 | 19.95946 | 40084 ft | 467 kts | 330° |
| 2026-05-06 13:55 | 41.10520 | 19.91475 | 40084 ft | 464 kts | 323° |
| 2026-05-06 13:56 | 41.15888 | 19.86751 | 40094 ft | 464 kts | 323° |
| 2026-05-06 13:56 | 41.21225 | 19.81995 | 40099 ft | 464 kts | 322° |
| 2026-05-06 13:57 | 41.26592 | 19.77207 | 40102 ft | 464 kts | 322° |
| 2026-05-06 13:57 | 41.31964 | 19.72415 | 40109 ft | 464 kts | 323° |
| 2026-05-06 13:58 | 41.37328 | 19.67624 | 40109 ft | 464 kts | 322° |
| 2026-05-06 13:58 | 41.42662 | 19.62849 | 40092 ft | 464 kts | 322° |
| 2026-05-06 13:59 | 41.48032 | 19.58034 | 40096 ft | 464 kts | 322° |
| 2026-05-06 13:59 | 41.53388 | 19.53221 | 40107 ft | 464 kts | 322° |
| 2026-05-06 14:00 | 41.58749 | 19.48393 | 40091 ft | 464 kts | 322° |
| 2026-05-06 14:00 | 41.64103 | 19.43561 | 40088 ft | 464 kts | 322° |
| 2026-05-06 14:01 | 41.69452 | 19.38723 | 40084 ft | 464 kts | 322° |
| 2026-05-06 14:01 | 41.74767 | 19.33908 | 40087 ft | 464 kts | 322° |
| 2026-05-06 14:02 | 41.80120 | 19.29057 | 40088 ft | 464 kts | 322° |
| 2026-05-06 14:02 | 41.85499 | 19.24249 | 40085 ft | 464 kts | 323° |
| 2026-05-06 14:03 | 41.90882 | 19.19441 | 40088 ft | 465 kts | 322° |
| 2026-05-06 14:03 | 41.96260 | 19.14618 | 40078 ft | 464 kts | 322° |
| 2026-05-06 14:04 | 42.01606 | 19.09808 | 40084 ft | 464 kts | 322° |
| 2026-05-06 14:04 | 42.07011 | 19.04931 | 40091 ft | 465 kts | 322° |
| 2026-05-06 14:05 | 42.12387 | 19.00072 | 40087 ft | 465 kts | 322° |
| 2026-05-06 14:05 | 42.17714 | 18.95246 | 40089 ft | 465 kts | 322° |
| 2026-05-06 14:06 | 42.23089 | 18.90368 | 40093 ft | 465 kts | 322° |
| 2026-05-06 14:06 | 42.28471 | 18.85472 | 40083 ft | 466 kts | 322° |
| 2026-05-06 14:07 | 42.33854 | 18.80566 | 40072 ft | 465 kts | 322° |
| 2026-05-06 14:07 | 42.39192 | 18.75690 | 40079 ft | 466 kts | 322° |
| 2026-05-06 14:08 | 42.44568 | 18.70770 | 40077 ft | 466 kts | 322° |
| 2026-05-06 14:08 | 42.49935 | 18.65848 | 40077 ft | 466 kts | 322° |
| 2026-05-06 14:09 | 42.55313 | 18.60905 | 40076 ft | 466 kts | 322° |
| 2026-05-06 14:09 | 42.60672 | 18.55969 | 40076 ft | 467 kts | 322° |
| 2026-05-06 14:10 | 42.66062 | 18.50995 | 40077 ft | 467 kts | 322° |
| 2026-05-06 14:10 | 42.71396 | 18.46061 | 40076 ft | 467 kts | 322° |
| 2026-05-06 14:11 | 42.76769 | 18.41081 | 40077 ft | 467 kts | 322° |
| 2026-05-06 14:11 | 42.82148 | 18.36085 | 40073 ft | 467 kts | 322° |
| 2026-05-06 14:12 | 42.87522 | 18.31083 | 40071 ft | 468 kts | 322° |
| 2026-05-06 14:12 | 42.92892 | 18.26072 | 40070 ft | 468 kts | 322° |
| 2026-05-06 14:13 | 42.98267 | 18.21047 | 40064 ft | 468 kts | 322° |
| 2026-05-06 14:13 | 43.03648 | 18.16006 | 40059 ft | 468 kts | 322° |
| 2026-05-06 14:14 | 43.09023 | 18.10959 | 40053 ft | 469 kts | 322° |
| 2026-05-06 14:14 | 43.14364 | 18.05932 | 40049 ft | 469 kts | 322° |
| 2026-05-06 14:15 | 43.19741 | 18.00861 | 40047 ft | 469 kts | 322° |
| 2026-05-06 14:15 | 43.25122 | 17.95776 | 40051 ft | 470 kts | 322° |
| 2026-05-06 14:16 | 43.30507 | 17.90675 | 40049 ft | 470 kts | 321° |
| 2026-05-06 14:16 | 43.35887 | 17.85568 | 40048 ft | 470 kts | 322° |
| 2026-05-06 14:17 | 43.41245 | 17.80471 | 40048 ft | 471 kts | 321° |
| 2026-05-06 14:17 | 43.46635 | 17.75331 | 40042 ft | 471 kts | 321° |
| 2026-05-06 14:18 | 43.52029 | 17.70177 | 40022 ft | 471 kts | 321° |
| 2026-05-06 14:18 | 43.57410 | 17.65012 | 40014 ft | 471 kts | 320° |
| 2026-05-06 14:19 | 43.62520 | 17.59406 | 40034 ft | 468 kts | 316° |
| 2026-05-06 14:19 | 43.67499 | 17.53582 | 40015 ft | 469 kts | 316° |
| 2026-05-06 14:20 | 43.72488 | 17.47839 | 40018 ft | 470 kts | 316° |
| 2026-05-06 14:20 | 43.77547 | 17.42103 | 40015 ft | 470 kts | 317° |
| 2026-05-06 14:21 | 43.82607 | 17.36382 | 40017 ft | 470 kts | 316° |
| 2026-05-06 14:21 | 43.87679 | 17.30631 | 40009 ft | 471 kts | 316° |
| 2026-05-06 14:22 | 43.92751 | 17.24861 | 40008 ft | 471 kts | 316° |
| 2026-05-06 14:22 | 43.97788 | 17.19117 | 40007 ft | 472 kts | 316° |
| 2026-05-06 14:23 | 44.02861 | 17.13319 | 40004 ft | 472 kts | 316° |
| 2026-05-06 14:23 | 44.07942 | 17.07500 | 40003 ft | 473 kts | 316° |
| 2026-05-06 14:24 | 44.13019 | 17.01672 | 39994 ft | 473 kts | 316° |
| 2026-05-06 14:24 | 44.17243 | 16.96811 | 39994 ft | 473 kts | 316° |
| 2026-05-06 14:25 | 44.22306 | 16.90970 | 39984 ft | 473 kts | 316° |
| 2026-05-06 14:25 | 44.27392 | 16.85094 | 39981 ft | 474 kts | 316° |
| 2026-05-06 14:26 | 44.32469 | 16.79279 | 39974 ft | 475 kts | 318° |
| 2026-05-06 14:26 | 44.37869 | 16.73899 | 39970 ft | 478 kts | 321° |
| 2026-05-06 14:27 | 44.43354 | 16.68657 | 39959 ft | 477 kts | 320° |
| 2026-05-06 14:27 | 44.48795 | 16.63329 | 39955 ft | 477 kts | 320° |
| 2026-05-06 14:28 | 44.54196 | 16.57944 | 39948 ft | 476 kts | 320° |
| 2026-05-06 14:28 | 44.59602 | 16.52519 | 39942 ft | 477 kts | 320° |
| 2026-05-06 14:29 | 44.64991 | 16.47104 | 39939 ft | 476 kts | 320° |
| 2026-05-06 14:29 | 44.70376 | 16.41683 | 39943 ft | 476 kts | 320° |
| 2026-05-06 14:30 | 44.75732 | 16.36280 | 39943 ft | 477 kts | 320° |
| 2026-05-06 14:30 | 44.81157 | 16.30794 | 39934 ft | 477 kts | 320° |
| 2026-05-06 14:31 | 44.86507 | 16.25374 | 39935 ft | 477 kts | 320° |
| 2026-05-06 14:31 | 44.91884 | 16.19911 | 39936 ft | 477 kts | 319° |
| 2026-05-06 14:32 | 44.97275 | 16.14421 | 39933 ft | 477 kts | 319° |
| 2026-05-06 14:32 | 45.02668 | 16.08916 | 39934 ft | 478 kts | 319° |
| 2026-05-06 14:33 | 45.08059 | 16.03398 | 39932 ft | 478 kts | 319° |
| 2026-05-06 14:33 | 45.13405 | 15.97914 | 39931 ft | 478 kts | 319° |
| 2026-05-06 14:34 | 45.18826 | 15.92342 | 39927 ft | 478 kts | 319° |
| 2026-05-06 14:34 | 45.24186 | 15.86846 | 39929 ft | 479 kts | 320° |
| 2026-05-06 14:35 | 45.29718 | 15.81513 | 39932 ft | 480 kts | 322° |
| 2026-05-06 14:35 | 45.35276 | 15.76248 | 39925 ft | 480 kts | 321° |
| 2026-05-06 14:36 | 45.40824 | 15.70929 | 39924 ft | 480 kts | 321° |
| 2026-05-06 14:36 | 45.46358 | 15.65574 | 39923 ft | 480 kts | 321° |
| 2026-05-06 14:37 | 45.51877 | 15.60209 | 39932 ft | 480 kts | 321° |
| 2026-05-06 14:37 | 45.57396 | 15.54834 | 39921 ft | 480 kts | 321° |
| 2026-05-06 14:38 | 45.62883 | 15.49479 | 39921 ft | 481 kts | 321° |
| 2026-05-06 14:38 | 45.68403 | 15.44079 | 39920 ft | 481 kts | 321° |
| 2026-05-06 14:39 | 45.73924 | 15.38664 | 39916 ft | 481 kts | 321° |
| 2026-05-06 14:39 | 45.79446 | 15.33212 | 39919 ft | 481 kts | 320° |
| 2026-05-06 14:40 | 45.84817 | 15.27525 | 39916 ft | 479 kts | 319° |
| 2026-05-06 14:40 | 45.90149 | 15.21747 | 39921 ft | 479 kts | 319° |
| 2026-05-06 14:41 | 45.95494 | 15.15997 | 39923 ft | 480 kts | 319° |
| 2026-05-06 14:41 | 46.00818 | 15.10297 | 39923 ft | 480 kts | 319° |
| 2026-05-06 14:42 | 46.06178 | 15.04555 | 39927 ft | 480 kts | 319° |
| 2026-05-06 14:42 | 46.11546 | 14.98788 | 39925 ft | 481 kts | 319° |
| 2026-05-06 14:43 | 46.16911 | 14.93006 | 39924 ft | 481 kts | 319° |
| 2026-05-06 14:43 | 46.22267 | 14.87222 | 39929 ft | 481 kts | 319° |
| 2026-05-06 14:44 | 46.27622 | 14.81424 | 39927 ft | 481 kts | 319° |
| 2026-05-06 14:45 | 46.35630 | 14.72726 | 39925 ft | 482 kts | 319° |
| 2026-05-06 14:45 | 46.40979 | 14.66899 | 39922 ft | 483 kts | 319° |
| 2026-05-06 14:46 | 46.46376 | 14.61006 | 39915 ft | 483 kts | 318° |
| 2026-05-06 14:46 | 46.51699 | 14.55038 | 39891 ft | 483 kts | 317° |
| 2026-05-06 14:47 | 46.56991 | 14.49004 | 39885 ft | 483 kts | 317° |
| 2026-05-06 14:47 | 46.62281 | 14.42981 | 39890 ft | 483 kts | 317° |
| 2026-05-06 14:48 | 46.67568 | 14.36969 | 39896 ft | 482 kts | 317° |
| 2026-05-06 14:48 | 46.72861 | 14.30941 | 39890 ft | 482 kts | 317° |
| 2026-05-06 14:49 | 46.78136 | 14.24917 | 39883 ft | 482 kts | 317° |
| 2026-05-06 14:49 | 46.83422 | 14.18865 | 39876 ft | 482 kts | 317° |
| 2026-05-06 14:50 | 46.88650 | 14.12864 | 39873 ft | 482 kts | 317° |
| 2026-05-06 14:50 | 46.93950 | 14.06766 | 39860 ft | 482 kts | 317° |
| 2026-05-06 14:51 | 46.99187 | 14.00724 | 39863 ft | 481 kts | 317° |
| 2026-05-06 14:51 | 47.04455 | 13.94638 | 39854 ft | 481 kts | 317° |
| 2026-05-06 14:52 | 47.09706 | 13.88546 | 39843 ft | 481 kts | 316° |
| 2026-05-06 14:52 | 47.14950 | 13.82450 | 39851 ft | 481 kts | 316° |
| 2026-05-06 14:53 | 47.20207 | 13.76317 | 39837 ft | 482 kts | 316° |
| 2026-05-06 14:53 | 47.25484 | 13.70262 | 39849 ft | 485 kts | 320° |
| 2026-05-06 14:54 | 47.31469 | 13.65510 | 39819 ft | 493 kts | 330° |
| 2026-05-06 14:54 | 47.37747 | 13.61318 | 39795 ft | 495 kts | 331° |
| 2026-05-06 14:55 | 47.44010 | 13.57235 | 39778 ft | 495 kts | 331° |
| 2026-05-06 14:55 | 47.50312 | 13.53106 | 39766 ft | 495 kts | 331° |
| 2026-05-06 14:56 | 47.56599 | 13.48958 | 39747 ft | 495 kts | 331° |
| 2026-05-06 14:56 | 47.62929 | 13.44755 | 39734 ft | 497 kts | 331° |
| 2026-05-06 14:57 | 47.69201 | 13.40582 | 39711 ft | 497 kts | 331° |
| 2026-05-06 14:57 | 47.75528 | 13.36366 | 39701 ft | 498 kts | 331° |
| 2026-05-06 14:58 | 47.81856 | 13.32135 | 39706 ft | 499 kts | 331° |
| 2026-05-06 14:58 | 47.88198 | 13.27882 | 39713 ft | 500 kts | 331° |
| 2026-05-06 14:59 | 47.94552 | 13.23610 | 39700 ft | 501 kts | 331° |
| 2026-05-06 14:59 | 48.00916 | 13.19323 | 39702 ft | 501 kts | 331° |
| 2026-05-06 15:00 | 48.07160 | 13.14732 | 39707 ft | 499 kts | 327° |
| 2026-05-06 15:00 | 48.13223 | 13.09672 | 39708 ft | 499 kts | 326° |
| 2026-05-06 15:01 | 48.19300 | 13.04623 | 39709 ft | 499 kts | 327° |
| 2026-05-06 15:01 | 48.25065 | 12.99079 | 39715 ft | 493 kts | 318° |
| 2026-05-06 15:02 | 48.30474 | 12.92758 | 39729 ft | 491 kts | 317° |
| 2026-05-06 15:02 | 48.35821 | 12.86348 | 39718 ft | 491 kts | 316° |
| 2026-05-06 15:03 | 48.41154 | 12.79928 | 39718 ft | 491 kts | 317° |
| 2026-05-06 15:03 | 48.46457 | 12.73542 | 39724 ft | 491 kts | 317° |
| 2026-05-06 15:04 | 48.51801 | 12.67096 | 39728 ft | 490 kts | 317° |
| 2026-05-06 15:04 | 48.57128 | 12.60655 | 39733 ft | 490 kts | 316° |
| 2026-05-06 15:05 | 48.62447 | 12.54205 | 39731 ft | 490 kts | 316° |
| 2026-05-06 15:05 | 48.67735 | 12.47774 | 39736 ft | 490 kts | 316° |
| 2026-05-06 15:06 | 48.73040 | 12.41305 | 39734 ft | 491 kts | 316° |
| 2026-05-06 15:06 | 48.78365 | 12.34792 | 39739 ft | 491 kts | 316° |
| 2026-05-06 15:07 | 48.83690 | 12.28261 | 39738 ft | 492 kts | 316° |
| 2026-05-06 15:07 | 48.88661 | 12.21236 | 39743 ft | 484 kts | 304° |
| 2026-05-06 15:08 | 48.92403 | 12.12843 | 39744 ft | 479 kts | 297° |
| 2026-05-06 15:08 | 48.95868 | 12.04180 | 39747 ft | 479 kts | 296° |
| 2026-05-06 15:09 | 48.99284 | 11.95501 | 39757 ft | 479 kts | 296° |
| 2026-05-06 15:09 | 49.02722 | 11.86788 | 39751 ft | 480 kts | 296° |
| 2026-05-06 15:10 | 49.06169 | 11.78065 | 39761 ft | 480 kts | 296° |
| 2026-05-06 15:10 | 49.09027 | 11.70816 | 39764 ft | 480 kts | 296° |
| 2026-05-06 15:11 | 49.12465 | 11.62070 | 39755 ft | 480 kts | 296° |
| 2026-05-06 15:11 | 49.15902 | 11.53295 | 39758 ft | 481 kts | 296° |
| 2026-05-06 15:12 | 49.19331 | 11.44512 | 39764 ft | 481 kts | 296° |
| 2026-05-06 15:12 | 49.22755 | 11.35711 | 39764 ft | 481 kts | 296° |
| 2026-05-06 15:13 | 49.26156 | 11.26939 | 39770 ft | 482 kts | 296° |
| 2026-05-06 15:13 | 49.29571 | 11.18102 | 39774 ft | 483 kts | 296° |
| 2026-05-06 15:14 | 49.32993 | 11.09219 | 39775 ft | 483 kts | 296° |
| 2026-05-06 15:14 | 49.36391 | 11.00367 | 39774 ft | 484 kts | 296° |
| 2026-05-06 15:15 | 49.40149 | 10.91754 | 39779 ft | 490 kts | 304° |
| 2026-05-06 15:15 | 49.44464 | 10.83644 | 39774 ft | 491 kts | 306° |
| 2026-05-06 15:16 | 49.48866 | 10.75594 | 39793 ft | 491 kts | 306° |
| 2026-05-06 15:16 | 49.53257 | 10.67556 | 39779 ft | 490 kts | 306° |
| 2026-05-06 15:17 | 49.57636 | 10.59482 | 39782 ft | 490 kts | 306° |
| 2026-05-06 15:17 | 49.61968 | 10.51454 | 39783 ft | 489 kts | 306° |
| 2026-05-06 15:18 | 49.65915 | 10.44113 | 39779 ft | 489 kts | 306° |
| 2026-05-06 15:18 | 49.70167 | 10.36185 | 39777 ft | 489 kts | 306° |
| 2026-05-06 15:19 | 49.74506 | 10.28072 | 39769 ft | 489 kts | 306° |
| 2026-05-06 15:19 | 49.78824 | 10.19973 | 39765 ft | 489 kts | 306° |
| 2026-05-06 15:20 | 49.83158 | 10.11817 | 39768 ft | 489 kts | 306° |
| 2026-05-06 15:20 | 49.87473 | 10.03672 | 39762 ft | 489 kts | 306° |
| 2026-05-06 15:21 | 49.91761 | 9.95556 | 39762 ft | 489 kts | 306° |
| 2026-05-06 15:21 | 49.96071 | 9.87371 | 39760 ft | 489 kts | 306° |
| 2026-05-06 15:22 | 50.00372 | 9.79177 | 39761 ft | 489 kts | 306° |
| 2026-05-06 15:22 | 50.04669 | 9.70965 | 39765 ft | 489 kts | 306° |
| 2026-05-06 15:23 | 50.08961 | 9.62735 | 39761 ft | 489 kts | 306° |
| 2026-05-06 15:23 | 50.13246 | 9.54496 | 39766 ft | 490 kts | 306° |
| 2026-05-06 15:24 | 50.17540 | 9.46211 | 39766 ft | 490 kts | 306° |
| 2026-05-06 15:24 | 50.21833 | 9.37904 | 39762 ft | 491 kts | 306° |
| 2026-05-06 15:25 | 50.26095 | 9.29632 | 39766 ft | 492 kts | 306° |
| 2026-05-06 15:25 | 50.30375 | 9.21295 | 39768 ft | 492 kts | 305° |
| 2026-05-06 15:26 | 50.34179 | 9.12457 | 39768 ft | 486 kts | 292° |
| 2026-05-06 15:26 | 50.36535 | 9.02631 | 39769 ft | 482 kts | 285° |
| 2026-05-06 15:27 | 50.38535 | 8.92594 | 39772 ft | 482 kts | 284° |
| 2026-05-06 15:27 | 50.40477 | 8.82544 | 39772 ft | 482 kts | 283° |
| 2026-05-06 15:28 | 50.42432 | 8.72484 | 39775 ft | 482 kts | 284° |
| 2026-05-06 15:28 | 50.44319 | 8.62384 | 39776 ft | 480 kts | 279° |
| 2026-05-06 15:29 | 50.45502 | 8.52110 | 39779 ft | 479 kts | 276° |
| 2026-05-06 15:29 | 50.46538 | 8.41786 | 39780 ft | 478 kts | 276° |
| 2026-05-06 15:30 | 50.47533 | 8.31552 | 39781 ft | 478 kts | 276° |
| 2026-05-06 15:30 | 50.48539 | 8.21184 | 39783 ft | 478 kts | 276° |
| 2026-05-06 15:31 | 50.49539 | 8.10854 | 39778 ft | 478 kts | 276° |
| 2026-05-06 15:31 | 50.50531 | 8.00528 | 39782 ft | 479 kts | 276° |
| 2026-05-06 15:32 | 50.52006 | 7.84996 | 39805 ft | 479 kts | 276° |
| 2026-05-06 15:32 | 50.52976 | 7.74648 | 39798 ft | 479 kts | 276° |
| 2026-05-06 15:33 | 50.53931 | 7.64356 | 39731 ft | 476 kts | 275° |
| 2026-05-06 15:33 | 50.54406 | 7.59208 | 39141 ft | 476 kts | 275° |
| 2026-05-06 15:33 | 50.54885 | 7.53991 | 38168 ft | 474 kts | 275° |
| 2026-05-06 15:34 | 50.55352 | 7.48868 | 36896 ft | 475 kts | 275° |
| 2026-05-06 15:34 | 50.55744 | 7.43778 | 36308 ft | 472 kts | 271° |
| 2026-05-06 15:34 | 50.55887 | 7.38647 | 35695 ft | 470 kts | 269° |
| 2026-05-06 15:34 | 50.55968 | 7.33508 | 35032 ft | 470 kts | 269° |
| 2026-05-06 15:35 | 50.56016 | 7.28364 | 34345 ft | 470 kts | 268° |
| 2026-05-06 15:35 | 50.56048 | 7.23202 | 33505 ft | 474 kts | 268° |
| 2026-05-06 15:35 | 50.56073 | 7.18044 | 32661 ft | 475 kts | 269° |
| 2026-05-06 15:35 | 50.56079 | 7.12821 | 31835 ft | 475 kts | 267° |
| 2026-05-06 15:36 | 50.55992 | 7.07630 | 31004 ft | 476 kts | 266° |
| 2026-05-06 15:36 | 50.55850 | 7.02421 | 30143 ft | 477 kts | 266° |
| 2026-05-06 15:36 | 50.55694 | 6.97207 | 29175 ft | 479 kts | 266° |
| 2026-05-06 15:36 | 50.55544 | 6.91984 | 28506 ft | 474 kts | 266° |
| 2026-05-06 15:37 | 50.55405 | 6.86837 | 27863 ft | 469 kts | 266° |
| 2026-05-06 15:37 | 50.55272 | 6.81793 | 27229 ft | 465 kts | 266° |
| 2026-05-06 15:37 | 50.55143 | 6.76745 | 26602 ft | 461 kts | 266° |
| 2026-05-06 15:37 | 50.55036 | 6.71722 | 25978 ft | 457 kts | 269° |
| 2026-05-06 15:38 | 50.55307 | 6.66750 | 25352 ft | 455 kts | 277° |
| 2026-05-06 15:38 | 50.55807 | 6.61839 | 24722 ft | 452 kts | 278° |
| 2026-05-06 15:38 | 50.56365 | 6.57005 | 24105 ft | 448 kts | 279° |
| 2026-05-06 15:38 | 50.56952 | 6.52201 | 23484 ft | 445 kts | 279° |
| 2026-05-06 15:39 | 50.57542 | 6.47442 | 22798 ft | 442 kts | 279° |
| 2026-05-06 15:39 | 50.58125 | 6.42714 | 22170 ft | 436 kts | 279° |
| 2026-05-06 15:39 | 50.58695 | 6.38052 | 21556 ft | 431 kts | 279° |
| 2026-05-06 15:39 | 50.59250 | 6.33443 | 20948 ft | 426 kts | 279° |
| 2026-05-06 15:40 | 50.59793 | 6.28884 | 20342 ft | 421 kts | 279° |
| 2026-05-06 15:40 | 50.60320 | 6.24436 | 19752 ft | 417 kts | 279° |
| 2026-05-06 15:40 | 50.60849 | 6.19976 | 19171 ft | 412 kts | 279° |
| 2026-05-06 15:40 | 50.61366 | 6.15559 | 18567 ft | 409 kts | 279° |
| 2026-05-06 15:41 | 50.61880 | 6.11155 | 17932 ft | 406 kts | 280° |
| 2026-05-06 15:41 | 50.62454 | 6.06848 | 17459 ft | 398 kts | 284° |
| 2026-05-06 15:41 | 50.63346 | 6.02724 | 16744 ft | 398 kts | 291° |
| 2026-05-06 15:41 | 50.64400 | 5.98657 | 16469 ft | 402 kts | 292° |
| 2026-05-06 15:42 | 50.65478 | 5.94605 | 16095 ft | 400 kts | 292° |
| 2026-05-06 15:42 | 50.66545 | 5.90626 | 15121 ft | 386 kts | 292° |
| 2026-05-06 15:42 | 50.67594 | 5.86729 | 13682 ft | 392 kts | 292° |
| 2026-05-06 15:42 | 50.68643 | 5.82831 | 12812 ft | 379 kts | 293° |
| 2026-05-06 15:43 | 50.69661 | 5.79042 | 12228 ft | 374 kts | 293° |
| 2026-05-06 15:43 | 50.70674 | 5.75272 | 11648 ft | 368 kts | 294° |
| 2026-05-06 15:43 | 50.71650 | 5.71640 | 11296 ft | 357 kts | 294° |
| 2026-05-06 15:43 | 50.72609 | 5.68067 | 11173 ft | 340 kts | 294° |
| 2026-05-06 15:44 | 50.73510 | 5.64708 | 11071 ft | 324 kts | 294° |
| 2026-05-06 15:44 | 50.74366 | 5.61507 | 10963 ft | 310 kts | 294° |
| 2026-05-06 15:44 | 50.75176 | 5.58475 | 10848 ft | 297 kts | 294° |
| 2026-05-06 15:44 | 50.75962 | 5.55532 | 10715 ft | 285 kts | 294° |
| 2026-05-06 15:45 | 50.76716 | 5.52705 | 10585 ft | 274 kts | 294° |
| 2026-05-06 15:45 | 50.77443 | 5.49977 | 10437 ft | 266 kts | 294° |
| 2026-05-06 15:45 | 50.78158 | 5.47293 | 10114 ft | 264 kts | 294° |
| 2026-05-06 15:45 | 50.78867 | 5.44627 | 9818 ft | 262 kts | 294° |
| 2026-05-06 15:46 | 50.79594 | 5.41895 | 9578 ft | 277 kts | 294° |
| 2026-05-06 15:46 | 50.80349 | 5.39057 | 9470 ft | 281 kts | 294° |
| 2026-05-06 15:46 | 50.81100 | 5.36221 | 9050 ft | 280 kts | 294° |
| 2026-05-06 15:46 | 50.81854 | 5.33367 | 8589 ft | 280 kts | 294° |
| 2026-05-06 15:47 | 50.82598 | 5.30544 | 8247 ft | 276 kts | 294° |
| 2026-05-06 15:47 | 50.83334 | 5.27754 | 7946 ft | 274 kts | 294° |
| 2026-05-06 15:47 | 50.84064 | 5.24981 | 7644 ft | 273 kts | 294° |
| 2026-05-06 15:47 | 50.84791 | 5.22218 | 7333 ft | 272 kts | 294° |
| 2026-05-06 15:48 | 50.85518 | 5.19454 | 7033 ft | 270 kts | 294° |
| 2026-05-06 15:48 | 50.86236 | 5.16719 | 6734 ft | 269 kts | 294° |
| 2026-05-06 15:48 | 50.86943 | 5.14026 | 6442 ft | 267 kts | 294° |
| 2026-05-06 15:48 | 50.87661 | 5.11281 | 6122 ft | 266 kts | 294° |
| 2026-05-06 15:49 | 50.88351 | 5.08639 | 5899 ft | 263 kts | 295° |
| 2026-05-06 15:49 | 50.89054 | 5.05949 | 5625 ft | 263 kts | 295° |
| 2026-05-06 15:49 | 50.89749 | 5.03284 | 5349 ft | 261 kts | 295° |
| 2026-05-06 15:49 | 50.90440 | 5.00632 | 5037 ft | 259 kts | 295° |
| 2026-05-06 15:50 | 50.91128 | 4.97990 | 4747 ft | 259 kts | 295° |
| 2026-05-06 15:50 | 50.91810 | 4.95367 | 4513 ft | 253 kts | 295° |
| 2026-05-06 15:50 | 50.92461 | 4.92856 | 4440 ft | 240 kts | 295° |
| 2026-05-06 15:50 | 50.93076 | 4.90480 | 4342 ft | 229 kts | 295° |
| 2026-05-06 15:51 | 50.93669 | 4.88194 | 4232 ft | 218 kts | 295° |
| 2026-05-06 15:51 | 50.94230 | 4.86026 | 4145 ft | 207 kts | 295° |
| 2026-05-06 15:51 | 50.94763 | 4.83961 | 4054 ft | 198 kts | 295° |
| 2026-05-06 15:51 | 50.95285 | 4.81949 | 3942 ft | 197 kts | 295° |
| 2026-05-06 15:52 | 50.95758 | 4.79908 | 3726 ft | 200 kts | 285° |
| 2026-05-06 15:52 | 50.95761 | 4.77706 | 3500 ft | 204 kts | 259° |
| 2026-05-06 15:52 | 50.95290 | 4.75603 | 3312 ft | 205 kts | 250° |
| 2026-05-06 15:52 | 50.94772 | 4.73582 | 3051 ft | 206 kts | 252° |
| 2026-05-06 15:53 | 50.94298 | 4.71446 | 2758 ft | 203 kts | 254° |
| 2026-05-06 15:53 | 50.93831 | 4.69415 | 2511 ft | 190 kts | 253° |
| 2026-05-06 15:53 | 50.93387 | 4.67503 | 2236 ft | 179 kts | 253° |
| 2026-05-06 15:53 | 50.92977 | 4.65720 | 2006 ft | 166 kts | 253° |
| 2026-05-06 15:54 | 50.92591 | 4.64043 | 1769 ft | 157 kts | 254° |
| 2026-05-06 15:54 | 50.92228 | 4.62464 | 1572 ft | 148 kts | 254° |
| 2026-05-06 15:54 | 50.91881 | 4.60958 | 1360 ft | 141 kts | 255° |
| 2026-05-06 15:54 | 50.91548 | 4.59506 | 1184 ft | 141 kts | 255° |
| 2026-05-06 15:55 | 50.91325 | 4.58533 | 1042 ft | 142 kts | 253° |
| 2026-05-06 15:55 | 50.90988 | 4.57065 | 827 ft | 142 kts | 254° |
| 2026-05-06 15:55 | 50.90642 | 4.55599 | 635 ft | 143 kts | 253° |
| 2026-05-06 15:55 | 50.90190 | 4.53660 | 392 ft | 141 kts | 253° |
| 2026-05-06 15:56 | 50.89968 | 4.52675 | 265 ft | 140 kts | 254° |
| 2026-05-06 15:56 | 50.89637 | 4.51256 | 179 ft | 125 kts | 252° |
| 2026-05-06 15:56 | 50.89429 | 4.50304 | 182 ft | 61 kts | 249° |
| 2026-05-06 15:56 | 50.89339 | 4.49918 | 183 ft | 25 kts | 255° |
| 2026-05-06 15:57 | 50.89368 | 4.49690 | 180 ft | 17 kts | 297° |
| 2026-05-06 15:57 | 50.89393 | 4.49627 | 176 ft | 4 kts | 305° |
| 2026-05-06 15:57 | 50.89437 | 4.49530 | 173 ft | 16 kts | 306° |
| 2026-05-06 15:57 | 50.89515 | 4.49360 | 169 ft | 24 kts | 308° |
| 2026-05-06 15:58 | 50.89579 | 4.49231 | 162 ft | 1 kts | 307° |
| 2026-05-06 15:58 | 50.89623 | 4.49172 | 160 ft | 13 kts | 336° |
| 2026-05-06 15:58 | 50.89757 | 4.49190 | 152 ft | 26 kts | 14° |
| 2026-05-06 15:58 | 50.89943 | 4.49248 | 141 ft | 21 kts | 342° |
| 2026-05-06 15:59 | 50.89972 | 4.49198 | 140 ft | 2 kts | 278° |
| 2026-05-06 15:59 | 50.89944 | 4.49111 | 142 ft | 12 kts | 246° |
| 2026-05-06 15:59 | 50.89964 | 4.49047 | 140 ft | 8 kts | 326° |
| 2026-05-06 15:59 | 50.89999 | 4.49017 | 138 ft | 0 kts | 334° |
| 2026-05-06 16:00 | 50.90015 | 4.49005 | 137 ft | 0 kts | 334° |